CST,Max TemperatureF,Mean TemperatureF,Min TemperatureF,Max Dew PointF,MeanDew PointF,Min DewpointF,Max Humidity, Mean Humidity, Min Humidity, Max Sea Level PressureIn, Mean Sea Level PressureIn, Min Sea Level PressureIn, Max VisibilityMiles, Mean VisibilityMiles, Min VisibilityMiles, Max Wind SpeedMPH, Mean Wind SpeedMPH, Max Gust SpeedMPH,PrecipitationIn, CloudCover, Events, WindDirDegrees
2012-1-1,32,28,24,21,15,10,74,59,41,30.55,30.33,30.05,10,10,10,38,24,47,0.00,1,,292
2012-1-2,26,20,15,10,7,3,68,55,37,30.64,30.57,30.46,10,10,10,21,14,25,0.00,0,,293
2012-1-3,44,30,15,27,16,7,68,56,45,30.36,30.04,29.88,10,10,10,22,10,28,0.00,0,,191
2012-1-4,57,44,30,27,24,21,75,51,29,30.22,30.12,30.04,10,10,10,21,14,25,0.00,0,,268
2012-1-5,66,50,33,28,25,21,65,49,24,30.02,29.85,29.69,10,10,9,8,3,,0.00,0,,216
2012-1-6,48,40,33,25,22,18,65,52,30,30.02,29.89,29.71,10,10,10,28,13,32,0.00,0,,293
2012-1-7,41,31,21,21,18,14,74,60,42,30.22,30.14,30.05,10,10,10,12,6,,0.00,0,,263
2012-1-8,44,34,23,28,23,18,86,69,46,30.29,30.23,30.18,10,10,10,16,4,21,0.00,2,,204
2012-1-9,51,40,28,27,24,19,80,58,38,30.15,30.06,30.01,10,10,10,14,10,,0.00,0,,235
2012-1-10,59,42,26,30,26,19,93,62,31,29.99,29.85,29.65,10,10,10,13,3,17,0.00,0,,189
2012-1-11,37,27,17,28,22,9,87,73,63,30.06,29.85,29.57,10,9,2,38,18,46,0.00,4,,318
2012-1-12,12,10,8,3,2,0,73,68,62,30.06,30.02,29.97,10,9,5,30,23,38,0.00,6,,308
2012-1-13,24,12,1,12,2,-6,78,63,39,30.05,29.99,29.89,10,10,10,13,7,,0.00,1,,237
2012-1-14,35,28,21,27,22,18,93,77,60,30.09,30.03,29.88,10,9,1,17,7,22,0.01,3,,279
2012-1-15,53,38,24,27,20,16,69,49,28,29.97,29.73,29.60,10,10,10,14,9,,0.00,0,,147
2012-1-16,33,24,15,25,14,9,86,70,58,30.00,29.86,29.74,10,10,10,25,19,32,0.00,0,,323
2012-1-17,15,9,3,10,3,0,86,75,62,30.34,30.24,30.05,10,7,2,24,16,31,0.00,1,,307
2012-1-18,35,18,1,16,6,-8,92,66,41,30.11,29.91,29.75,10,10,10,30,12,37,0.00,1,,248
2012-1-19,6,3,0,-6,-8,-11,72,62,52,30.20,30.11,30.03,10,10,10,20,11,23,0.00,3,,357
2012-1-20,12,8,5,5,2,0,85,77,67,30.20,30.02,29.89,10,7,0,20,10,23,0.00,7,,60
2012-1-21,24,16,8,16,8,1,85,77,69,30.20,29.96,29.62,10,9,2,31,11,38,0.00,5,,136
2012-1-22,30,26,21,27,22,16,93,85,80,29.60,29.50,29.40,10,5,1,24,13,30,0.00,7,,353
2012-1-23,24,22,21,21,17,16,86,79,74,29.96,29.80,29.61,10,7,2,31,23,36,0.00,8,,299
2012-1-24,26,14,3,21,10,-2,100,88,74,30.21,30.13,30.02,10,6,0,10,3,,0.00,0,,91
2012-1-25,33,27,21,30,27,19,100,92,81,30.20,30.04,29.84,10,5,0,14,5,,0.01,5,,159
2012-1-26,42,33,24,28,26,21,100,68,53,29.92,29.88,29.84,10,10,8,25,11,32,0.01,2,,285
2012-1-27,37,32,26,30,26,19,93,78,56,30.08,29.90,29.81,10,9,3,30,10,40,0.02,5,,235
2012-1-28,39,32,24,21,17,14,74,59,45,30.16,30.11,30.06,10,10,10,24,15,29,0.00,0,,259
2012-1-29,35,27,19,21,17,12,80,66,52,30.20,30.10,29.87,10,10,10,14,10,,0.00,3,,161
2012-1-30,57,46,35,36,27,23,65,50,36,29.76,29.69,29.61,10,10,10,15,7,,0.00,0,,188
2012-1-31,53,45,35,36,29,23,70,57,43,29.98,29.82,29.66,10,10,10,21,13,24,0.00,0,,274